Time;durP1;ratioP1;P1;durP2;ratioP2;P2;SDS_P1;SDS_P2;PMS_P1;PMS_P2;Temp;Humidity;BMP_temperature;BMP_pressure;BME280_temperature;BME280_humidity;BME280_pressure;Samples;Min_cycle;Max_cycle;Signal;HPM_P1;HPM_P2
2022/10/23 00:01:15;;;;;;;15.30;8.97;;;;;;;12.03;100.00;101249.59;5021292;28;20037;-91
2022/10/23 00:03:41;;;;;;;16.30;8.93;;;;;;;11.99;100.00;101232.88;5039852;28;20037;-92
2022/10/23 00:06:07;;;;;;;14.27;9.20;;;;;;;12.04;100.00;101241.22;5022169;28;20495;-92
2022/10/23 00:08:32;;;;;;;17.83;9.30;;;;;;;12.04;100.00;101245.84;5039812;28;20619;-92
2022/10/23 00:10:58;;;;;;;15.40;9.20;;;;;;;12.02;100.00;101239.78;5040206;28;20275;-94
2022/10/23 00:13:23;;;;;;;19.90;9.67;;;;;;;12.03;100.00;101249.59;5040115;28;21514;-92
2022/10/23 00:15:49;;;;;;;14.57;9.27;;;;;;;11.97;100.00;101237.69;5022470;28;21319;-93
2022/10/23 00:18:14;;;;;;;19.23;9.67;;;;;;;11.99;100.00;101239.16;5038044;28;20049;-94
2022/10/23 00:20:39;;;;;;;14.23;8.97;;;;;;;11.99;100.00;101232.88;5040681;28;20045;-91
2022/10/23 00:23:05;;;;;;;16.13;9.23;;;;;;;11.96;100.00;101231.41;4999051;28;21386;-92
2022/10/23 00:25:32;;;;;;;15.23;8.70;;;;;;;11.88;100.00;101228.06;5022213;28;20041;-94
2022/10/23 00:27:57;;;;;;;17.37;9.17;;;;;;;11.89;100.00;101236.00;5019628;28;20501;-92
2022/10/23 00:30:22;;;;;;;13.87;9.07;;;;;;;11.95;100.00;101245.22;5008511;28;20032;-92
2022/10/23 00:32:48;;;;;;;14.67;9.00;;;;;;;11.93;100.00;101242.69;5044477;28;20399;-92
2022/10/23 00:35:13;;;;;;;16.03;9.13;;;;;;;11.90;100.00;101237.69;5044690;28;20043;-92
2022/10/23 00:37:39;;;;;;;15.93;9.20;;;;;;;11.94;100.00;101254.38;5026043;28;20086;-93
2022/10/23 00:40:05;;;;;;;16.50;8.57;;;;;;;11.92;100.00;101242.91;5043092;28;20117;-93
2022/10/23 00:42:30;;;;;;;15.00;8.50;;;;;;;11.92;100.00;101237.47;5026168;28;20052;-93
2022/10/23 00:45:22;;;;;;;15.33;8.57;;;;;;;11.92;100.00;101240.19;5019413;28;20072;-92
2022/10/23 00:47:48;;;;;;;19.67;9.00;;;;;;;11.91;100.00;101242.06;5044068;28;20166;-93
2022/10/23 00:50:14;;;;;;;15.13;8.83;;;;;;;11.85;100.00;101234.75;5042381;28;20641;-92
2022/10/23 00:52:45;;;;;;;16.93;9.07;;;;;;;11.86;100.00;101239.16;5019462;28;20123;-93
2022/10/23 00:55:11;;;;;;;17.03;8.80;;;;;;;11.88;100.00;101225.34;5043660;28;20502;-93
2022/10/23 00:57:41;;;;;;;18.40;8.83;;;;;;;11.85;100.00;101226.59;5028000;28;20029;-92
2022/10/23 01:00:07;;;;;;;15.30;8.43;;;;;;;11.86;100.00;101232.88;5044079;28;20156;-92
2022/10/23 01:02:33;;;;;;;14.97;8.37;;;;;;;11.85;100.00;101239.38;5019258;28;20887;-93
2022/10/23 01:04:58;;;;;;;14.07;8.23;;;;;;;11.85;100.00;101234.75;5043426;28;20037;-92
2022/10/23 01:08:09;;;;;;;17.10;8.87;;;;;;;11.91;100.00;101244.78;5016687;28;20051;-93
2022/10/23 01:10:46;;;;;;;15.73;8.57;;;;;;;11.83;100.00;101234.97;4980905;28;20055;-93
2022/10/23 01:13:27;;;;;;;15.47;8.03;;;;;;;11.80;100.00;101229.13;4980878;28;20733;-93
2022/10/23 01:16:02;;;;;;;15.97;8.40;;;;;;;11.82;100.00;101225.16;5024067;28;20048;-93
2022/10/23 01:18:42;;;;;;;15.77;8.30;;;;;;;11.82;100.00;101224.31;5043873;28;20511;-94
2022/10/23 01:21:22;;;;;;;13.00;8.07;;;;;;;11.85;100.00;101214.94;5018918;28;20554;-94
2022/10/23 01:24:18;;;;;;;18.80;8.30;;;;;;;11.80;100.00;101215.53;5043427;28;20119;-93
2022/10/23 01:26:52;;;;;;;14.10;8.57;;;;;;;11.79;100.00;101219.28;5035505;28;20037;-93
2022/10/23 01:29:21;;;;;;;16.38;8.35;;;;;;;11.85;100.00;101221.19;5042462;28;20559;-93
2022/10/23 01:31:58;;;;;;;14.30;8.30;;;;;;;11.84;100.00;101214.06;5043027;28;20167;-92
2022/10/23 01:34:42;;;;;;;14.47;8.33;;;;;;;11.83;100.00;101212.41;5023756;28;20161;-93
2022/10/23 01:37:12;;;;;;;16.98;8.73;;;;;;;11.83;100.00;101212.41;5041606;28;20041;-93
2022/10/23 01:39:45;;;;;;;13.70;7.90;;;;;;;11.79;100.00;101219.28;5042295;28;20033;-93
2022/10/23 01:42:15;;;;;;;14.77;8.20;;;;;;;11.81;100.00;101203.66;5041644;28;20059;-94
2022/10/23 01:44:47;;;;;;;14.07;7.97;;;;;;;11.80;100.00;101201.97;5023605;28;20082;-93
2022/10/23 01:47:17;;;;;;;13.50;7.80;;;;;;;11.80;100.00;101204.69;5043159;28;20481;-94
2022/10/23 01:49:44;;;;;;;16.97;8.00;;;;;;;11.65;100.00;101194.91;5042656;28;20076;-93
2022/10/23 01:52:12;;;;;;;15.63;7.80;;;;;;;11.60;100.00;101200.13;5035563;28;20047;-94
2022/10/23 01:54:41;;;;;;;14.63;7.73;;;;;;;11.54;100.00;101186.56;5042891;28;20096;-92
2022/10/23 01:57:11;;;;;;;13.57;7.37;;;;;;;11.56;100.00;101182.59;5043573;28;20032;-93
2022/10/23 01:59:42;;;;;;;15.17;7.90;;;;;;;11.49;100.00;101181.75;5043822;28;20582;-92
2022/10/23 02:02:10;;;;;;;15.73;7.87;;;;;;;11.57;100.00;101176.13;5043765;28;21404;-94
2022/10/23 02:04:41;;;;;;;15.77;7.33;;;;;;;11.53;100.00;101180.28;5042880;28;20025;-93
2022/10/23 02:07:06;;;;;;;15.10;8.23;;;;;;;11.59;100.00;101179.44;5042874;28;20538;-94
2022/10/23 02:09:32;;;;;;;15.37;8.20;;;;;;;11.63;100.00;101183.41;5042273;28;20037;-93
2022/10/23 02:12:11;;;;;;;15.30;7.77;;;;;;;11.62;100.00;101170.88;5042004;28;20344;-92
2022/10/23 02:14:50;;;;;;;14.40;8.10;;;;;;;11.65;100.00;101177.78;5043058;28;20048;-92
2022/10/23 02:17:25;;;;;;;13.97;7.87;;;;;;;11.55;100.00;101180.91;5023205;28;20038;-92
2022/10/23 02:20:13;;;;;;;15.53;7.57;;;;;;;11.59;100.00;101182.16;5041064;28;20036;-92
2022/10/23 02:22:45;;;;;;;15.13;8.10;;;;;;;11.63;100.00;101179.88;5042584;28;20064;-93
2022/10/23 02:25:17;;;;;;;15.27;8.37;;;;;;;11.62;100.00;101179.03;5041714;28;20037;-93
2022/10/23 02:27:49;;;;;;;16.03;9.17;;;;;;;11.57;100.00;101173.41;5042209;28;20033;-93
2022/10/23 02:30:17;;;;;;;17.57;8.77;;;;;;;11.61;100.00;101171.94;5042503;28;20063;-93
2022/10/23 02:32:49;;;;;;;17.27;9.20;;;;;;;11.61;100.00;101177.38;5042081;28;20123;-93
2022/10/23 02:35:17;;;;;;;16.43;9.17;;;;;;;11.57;100.00;101169.84;5042212;28;20039;-93
2022/10/23 02:37:50;;;;;;;17.23;9.50;;;;;;;11.62;100.00;101175.47;5034263;28;20028;-92
2022/10/23 02:40:16;;;;;;;18.53;9.10;;;;;;;11.55;100.00;101164.63;5041377;28;20511;-92
2022/10/23 02:42:48;;;;;;;18.97;10.00;;;;;;;11.58;100.00;101150.63;5018388;28;20037;-93
2022/10/23 02:45:35;;;;;;;20.13;10.20;;;;;;;11.60;100.00;101151.28;5041206;28;20393;-94
2022/10/23 02:48:24;;;;;;;19.53;9.90;;;;;;;11.62;100.00;101146.44;5042504;28;20116;-93
2022/10/23 02:51:00;;;;;;;17.93;9.40;;;;;;;11.61;100.00;101133.09;5041930;28;20072;-92
2022/10/23 02:53:35;;;;;;;17.17;9.73;;;;;;;11.59;100.00;101125.16;5040812;28;21778;-94
2022/10/23 02:56:16;;;;;;;17.40;10.20;;;;;;;11.54;100.00;101108.69;5023652;28;20041;-93
2022/10/23 02:58:55;;;;;;;18.07;9.70;;;;;;;11.52;100.00;101102.66;5041924;28;20032;-95
2022/10/23 03:01:28;;;;;;;17.70;9.30;;;;;;;11.57;100.00;101105.56;5043070;28;20098;-92
2022/10/23 03:03:58;;;;;;;15.90;9.80;;;;;;;11.57;100.00;101094.72;5041802;28;20550;-93
2022/10/23 03:06:24;;;;;;;17.77;9.83;;;;;;;11.59;100.00;101098.03;5018724;28;20473;-93
2022/10/23 03:09:09;;;;;;;17.80;9.43;;;;;;;11.63;100.00;101104.69;5040581;28;20044;-94
2022/10/23 03:11:35;;;;;;;14.98;9.20;;;;;;;11.57;100.00;101085.72;5023018;28;20053;-93
2022/10/23 03:14:00;;;;;;;17.43;8.87;;;;;;;11.63;100.00;101093.03;5040077;28;20124;-92
2022/10/23 03:16:26;;;;;;;19.10;10.07;;;;;;;11.63;100.00;101093.84;5024207;28;20033;-94
2022/10/23 03:18:51;;;;;;;18.90;9.67;;;;;;;11.64;100.00;101084.66;5040485;28;20044;-92
2022/10/23 03:21:17;;;;;;;17.67;9.13;;;;;;;11.64;100.00;101078.38;5042056;28;20048;-93
2022/10/23 03:23:42;;;;;;;16.53;9.37;;;;;;;11.61;100.00;101073.38;5032932;28;20488;-94
2022/10/23 03:26:08;;;;;;;14.57;9.00;;;;;;;11.63;100.00;101072.13;5017552;28;20056;-94
2022/10/23 03:28:34;;;;;;;17.53;9.23;;;;;;;11.62;100.00;101072.34;5040094;28;20032;-92
2022/10/23 03:31:01;;;;;;;16.57;9.07;;;;;;;11.63;100.00;101074.84;5041493;28;20124;-92
2022/10/23 03:33:27;;;;;;;14.97;8.77;;;;;;;11.66;100.00;101073.59;5040687;28;20124;-92
2022/10/23 03:35:52;;;;;;;17.37;8.40;;;;;;;11.66;100.00;101070.88;5041659;28;20583;-95
2022/10/23 03:38:17;;;;;;;15.43;8.67;;;;;;;11.69;100.00;101064.19;5040064;28;20481;-93
2022/10/23 03:40:43;;;;;;;16.30;8.00;;;;;;;11.65;100.00;101061.91;5000091;28;20037;-93
2022/10/23 03:43:08;;;;;;;16.70;8.33;;;;;;;11.63;100.00;101053.13;5040995;28;20483;-93
2022/10/23 03:45:35;;;;;;;15.67;8.60;;;;;;;11.63;100.00;101053.13;5032906;28;20071;-94
2022/10/23 03:48:01;;;;;;;14.23;8.20;;;;;;;11.61;100.00;101044.38;5040283;28;20028;-92
2022/10/23 03:50:26;;;;;;;19.20;8.67;;;;;;;11.64;100.00;101038.53;5022690;28;20047;-92
2022/10/23 03:52:52;;;;;;;18.27;7.90;;;;;;;11.66;100.00;101044.56;5039982;28;20125;-92
2022/10/23 03:55:17;;;;;;;17.80;8.10;;;;;;;11.69;100.00;101054.16;4984579;28;20033;-91
2022/10/23 03:57:42;;;;;;;15.50;7.80;;;;;;;11.70;100.00;101049.59;5021622;28;20040;-91
2022/10/23 04:00:08;;;;;;;15.93;7.57;;;;;;;11.68;100.00;101046.22;5022913;28;20405;-92
2022/10/23 04:02:34;;;;;;;17.57;8.10;;;;;;;11.68;100.00;101036.19;5044195;28;20033;-93
2022/10/23 04:04:59;;;;;;;13.87;7.53;;;;;;;11.70;100.00;101042.25;5044663;28;20033;-93
2022/10/23 04:07:25;;;;;;;15.17;8.03;;;;;;;11.73;100.00;101043.72;5043549;28;20025;-94
2022/10/23 04:09:50;;;;;;;13.93;8.17;;;;;;;11.71;100.00;101029.50;5044027;28;21039;-92
2022/10/23 04:12:15;;;;;;;14.03;7.67;;;;;;;11.73;100.00;101032.84;5044439;28;21455;-92
2022/10/23 04:14:41;;;;;;;14.47;7.10;;;;;;;11.72;100.00;101017.63;5026752;28;20413;-92
2022/10/23 04:17:06;;;;;;;17.87;8.10;;;;;;;11.74;100.00;101015.53;5044218;28;20067;-94
2022/10/23 04:19:32;;;;;;;15.60;7.37;;;;;;;11.76;100.00;101008.84;5025774;28;20032;-94
2022/10/23 04:21:57;;;;;;;14.47;7.60;;;;;;;11.76;100.00;101003.41;5042912;28;20051;-93
2022/10/23 04:24:24;;;;;;;14.60;7.00;;;;;;;11.82;100.00;101004.44;5036191;28;20102;-90
2022/10/23 04:26:49;;;;;;;14.97;7.60;;;;;;;11.78;100.00;101000.47;5044054;28;20032;-91
2022/10/23 04:29:15;;;;;;;17.80;8.17;;;;;;;11.79;100.00;101004.84;5043863;28;20041;-92
2022/10/23 04:31:40;;;;;;;15.07;7.83;;;;;;;11.80;100.00;101012.78;5020694;28;20071;-91
2022/10/23 04:34:06;;;;;;;13.80;7.67;;;;;;;11.83;100.00;101014.22;5019308;28;20036;-92
2022/10/23 04:36:31;;;;;;;13.73;7.57;;;;;;;11.86;100.00;101010.22;5021207;28;20373;-91
2022/10/23 04:38:57;;;;;;;15.87;7.73;;;;;;;11.88;100.00;101019.00;5025727;28;20503;-93
2022/10/23 04:41:22;;;;;;;15.87;7.57;;;;;;;11.88;100.00;101002.72;5036652;28;20443;-91
2022/10/23 04:43:47;;;;;;;15.30;7.80;;;;;;;11.92;100.00;101004.78;5043733;28;20134;-94
2022/10/23 04:46:13;;;;;;;18.00;8.30;;;;;;;11.91;100.00;101007.72;5019681;28;20037;-93
2022/10/23 04:48:38;;;;;;;17.80;7.50;;;;;;;11.89;100.00;100999.78;5025636;28;20037;-93
2022/10/23 04:51:05;;;;;;;12.97;7.43;;;;;;;11.92;100.00;101004.78;5043138;28;20275;-89
2022/10/23 04:53:31;;;;;;;15.90;7.50;;;;;;;11.91;100.00;101002.28;5043415;28;20072;-93
2022/10/23 04:55:58;;;;;;;13.37;7.53;;;;;;;11.95;100.00;101003.53;5043387;28;20135;-91
2022/10/23 04:58:26;;;;;;;14.83;7.13;;;;;;;11.91;100.00;101003.13;5025514;28;20036;-90
2022/10/23 05:00:52;;;;;;;16.23;7.87;;;;;;;11.94;100.00;101001.84;5040948;28;20147;-93
2022/10/23 05:03:18;;;;;;;14.10;7.50;;;;;;;11.91;100.00;100991.41;5043604;28;20032;-92
2022/10/23 05:05:44;;;;;;;17.97;8.27;;;;;;;11.94;100.00;100991.84;5043575;28;20489;-92
2022/10/23 05:08:10;;;;;;;15.43;7.83;;;;;;;11.95;100.00;100988.09;5043125;28;20040;-93
2022/10/23 05:10:36;;;;;;;15.73;7.30;;;;;;;11.99;100.00;100991.19;5042364;28;20045;-90
2022/10/23 05:13:02;;;;;;;12.33;6.67;;;;;;;11.98;100.00;100993.09;5042406;28;20106;-90
2022/10/23 05:15:28;;;;;;;15.13;7.57;;;;;;;11.99;100.00;100974.91;5043809;28;20091;-92
2022/10/23 05:18:06;;;;;;;13.43;7.50;;;;;;;11.98;100.00;100981.38;5042745;28;20033;-92
2022/10/23 05:20:34;;;;;;;15.53;7.57;;;;;;;11.99;100.00;100989.31;5042210;28;20036;-93
2022/10/23 05:23:01;;;;;;;16.40;7.40;;;;;;;12.01;100.00;100980.97;5043428;28;20045;-91
2022/10/23 05:25:29;;;;;;;14.40;7.80;;;;;;;12.02;100.00;100981.78;5041958;28;20025;-91
2022/10/23 05:27:54;;;;;;;14.93;7.00;;;;;;;11.98;100.00;100974.06;5042543;28;20459;-92
2022/10/23 05:30:20;;;;;;;16.20;7.40;;;;;;;12.04;100.00;100985.94;5009360;28;20143;-93
2022/10/23 05:32:45;;;;;;;15.47;7.23;;;;;;;12.03;100.00;100973.41;5042359;28;20227;-91
2022/10/23 05:35:16;;;;;;;13.50;7.43;;;;;;;12.02;100.00;100970.91;5041699;28;20106;-92
2022/10/23 05:37:44;;;;;;;14.57;7.17;;;;;;;12.03;100.00;100975.31;5035262;28;20559;-93
2022/10/23 05:40:10;;;;;;;13.07;7.67;;;;;;;12.06;100.00;100964.00;5041141;28;20267;-93
2022/10/23 05:42:35;;;;;;;15.07;7.50;;;;;;;11.98;100.00;100955.06;5019148;28;20028;-93
2022/10/23 05:45:01;;;;;;;13.67;7.40;;;;;;;12.08;100.00;100975.50;5024809;28;20071;-93
2022/10/23 05:47:26;;;;;;;12.23;7.50;;;;;;;12.05;100.00;100973.19;5030906;28;20063;-93
2022/10/23 05:49:51;;;;;;;14.90;7.40;;;;;;;12.06;100.00;100959.41;5040625;28;20036;-92
2022/10/23 05:52:19;;;;;;;12.00;7.53;;;;;;;12.07;100.00;100958.34;5018334;28;20400;-92
2022/10/23 05:54:44;;;;;;;13.67;7.90;;;;;;;12.05;100.00;100957.75;5034076;28;20405;-90
2022/10/23 05:57:09;;;;;;;13.37;7.20;;;;;;;12.10;100.00;100954.34;5024184;28;20053;-93
2022/10/23 05:59:35;;;;;;;14.50;8.00;;;;;;;12.12;100.00;100949.56;5041511;28;20439;-90
2022/10/23 06:02:00;;;;;;;14.13;7.50;;;;;;;12.11;100.00;100953.31;5042118;28;20037;-93
2022/10/23 06:04:26;;;;;;;13.63;7.33;;;;;;;12.13;100.00;100952.03;5018003;28;20037;-92
2022/10/23 06:06:51;;;;;;;14.60;7.77;;;;;;;12.07;100.00;100938.50;5018390;28;20044;-92
2022/10/23 06:09:16;;;;;;;15.23;7.87;;;;;;;12.11;100.00;100948.69;5001380;28;20090;-92
2022/10/23 06:11:42;;;;;;;14.33;7.97;;;;;;;12.09;100.00;100930.97;5041614;28;20057;-91
2022/10/23 06:14:07;;;;;;;13.60;8.10;;;;;;;12.15;100.00;100941.78;5000861;28;20388;-94
2022/10/23 06:16:33;;;;;;;14.90;7.80;;;;;;;12.11;100.00;100932.41;5018132;28;20124;-93
2022/10/23 06:18:59;;;;;;;15.33;7.90;;;;;;;12.15;100.00;100933.63;5022831;28;20044;-92
2022/10/23 06:21:24;;;;;;;15.43;7.77;;;;;;;12.15;100.00;100922.75;5034733;28;20800;-91
2022/10/23 06:23:50;;;;;;;12.03;7.67;;;;;;;12.19;100.00;100927.78;5024146;28;20037;-92
2022/10/23 06:26:17;;;;;;;11.93;7.80;;;;;;;12.18;100.00;100926.09;5041993;28;20044;-94
2022/10/23 06:28:42;;;;;;;17.27;8.20;;;;;;;12.20;100.00;100926.69;5041709;28;20082;-91
2022/10/23 06:31:11;;;;;;;13.67;8.10;;;;;;;12.20;100.00;100929.41;5017320;28;20038;-92
2022/10/23 06:33:36;;;;;;;11.33;7.67;;;;;;;12.20;100.00;100934.84;5023873;28;20569;-91
2022/10/23 06:36:04;;;;;;;14.67;8.20;;;;;;;12.21;100.00;100937.38;5041180;28;20043;-91
2022/10/23 06:38:35;;;;;;;13.50;8.20;;;;;;;12.23;100.00;100932.53;5040952;28;20040;-90
2022/10/23 06:41:01;;;;;;;14.87;8.27;;;;;;;12.24;100.00;100917.06;5039934;28;20159;-90
2022/10/23 06:43:26;;;;;;;15.27;8.27;;;;;;;12.25;100.00;100919.59;5017851;28;20037;-89
2022/10/23 06:45:52;;;;;;;15.70;9.17;;;;;;;12.21;100.00;100907.50;5022690;28;20488;-91
2022/10/23 06:48:17;;;;;;;12.70;7.83;;;;;;;12.28;100.00;100915.56;5018350;28;20048;-91
2022/10/23 06:50:43;;;;;;;17.20;8.50;;;;;;;12.30;100.00;100911.56;5040834;28;20036;-92
2022/10/23 06:53:08;;;;;;;13.57;8.73;;;;;;;12.23;100.00;100893.69;5033813;28;20033;-91
2022/10/23 06:55:34;;;;;;;12.70;8.30;;;;;;;12.31;100.00;100904.28;5041310;28;20577;-90
2022/10/23 06:57:59;;;;;;;12.20;7.83;;;;;;;12.33;100.00;100903.00;5017220;28;20506;-89
2022/10/23 07:00:25;;;;;;;13.63;8.07;;;;;;;12.33;100.00;100900.28;5040914;28;20041;-89
2022/10/23 07:02:51;;;;;;;12.87;7.97;;;;;;;12.35;100.00;100901.94;5022031;28;20060;-90
2022/10/23 07:05:17;;;;;;;12.87;7.93;;;;;;;12.37;100.00;100897.13;5006024;28;20490;-91
2022/10/23 07:07:43;;;;;;;13.70;7.87;;;;;;;12.39;100.00;100898.56;5022526;28;21505;-92
2022/10/23 07:10:09;;;;;;;12.17;7.47;;;;;;;12.42;100.00;100906.25;5040477;28;20100;-91
2022/10/23 07:12:34;;;;;;;14.93;7.67;;;;;;;12.43;100.00;100913.38;5041294;28;20606;-91
2022/10/23 07:14:59;;;;;;;14.57;8.33;;;;;;;12.46;100.00;100912.09;5032065;28;20050;-89
2022/10/23 07:17:25;;;;;;;14.83;8.77;;;;;;;12.48;100.00;100909.97;5033756;28;20044;-91
2022/10/23 07:19:50;;;;;;;12.93;8.73;;;;;;;12.50;100.00;100903.25;5022582;28;20515;-90
2022/10/23 07:22:16;;;;;;;14.47;9.03;;;;;;;12.49;100.00;100903.47;5041041;28;20033;-91
2022/10/23 07:24:41;;;;;;;12.80;8.27;;;;;;;12.58;100.00;100901.28;5016503;28;20067;-91
2022/10/23 07:27:07;;;;;;;14.50;7.80;;;;;;;12.59;100.00;100906.53;5037928;28;20071;-93
2022/10/23 07:29:32;;;;;;;13.73;6.97;;;;;;;12.61;100.00;100890.00;5006148;28;20036;-91
2022/10/23 07:31:59;;;;;;;12.90;7.37;;;;;;;12.66;100.00;100892.84;5001138;28;20091;-91
2022/10/23 07:34:25;;;;;;;14.40;7.23;;;;;;;12.73;100.00;100884.63;5017177;28;20110;-91
2022/10/23 07:36:50;;;;;;;13.43;7.47;;;;;;;12.74;100.00;100889.88;5039270;28;20560;-91
2022/10/23 07:39:16;;;;;;;15.37;7.23;;;;;;;12.79;100.00;100886.47;5040183;28;20064;-89
2022/10/23 07:41:41;;;;;;;11.60;6.80;;;;;;;12.85;100.00;100880.09;5016486;28;20045;-92
2022/10/23 07:44:07;;;;;;;12.07;6.57;;;;;;;12.82;100.00;100875.13;5021855;28;20773;-91
2022/10/23 07:46:32;;;;;;;12.03;6.93;;;;;;;12.89;100.00;100875.06;5040558;28;20391;-91
2022/10/23 07:48:57;;;;;;;11.67;6.73;;;;;;;12.93;100.00;100882.56;5039651;28;20040;-91
2022/10/23 07:51:23;;;;;;;13.00;7.07;;;;;;;12.98;100.00;100882.69;5021868;28;20041;-91
2022/10/23 07:53:48;;;;;;;11.53;6.53;;;;;;;12.97;100.00;100877.47;5016688;28;20060;-90
2022/10/23 07:56:22;;;;;;;13.90;6.60;;;;;;;13.02;100.00;100871.38;5040180;28;20228;-92
2022/10/23 07:58:49;;;;;;;13.45;6.90;;;;;;;13.04;100.00;100870.09;5040383;28;20391;-91
2022/10/23 08:01:26;;;;;;;15.13;7.17;;;;;;;13.06;100.00;100864.41;5022167;28;20072;-91
2022/10/23 08:03:51;;;;;;;13.07;6.93;;;;;;;13.16;100.00;100875.56;5041065;28;20033;-90
2022/10/23 08:06:17;;;;;;;14.03;6.80;;;;;;;13.16;100.00;100861.97;5021955;28;20054;-91
2022/10/23 08:08:42;;;;;;;14.10;6.77;;;;;;;13.21;100.00;100862.13;5040461;28;20037;-90
2022/10/23 08:11:11;;;;;;;9.63;6.83;;;;;;;13.30;100.00;100868.91;4999345;28;20623;-92
2022/10/23 08:13:36;;;;;;;15.63;7.07;;;;;;;13.33;100.00;100857.56;5040858;28;20071;-90
2022/10/23 08:16:02;;;;;;;12.03;6.70;;;;;;;13.40;100.00;100860.22;5039521;28;20685;-92
2022/10/23 08:18:27;;;;;;;11.20;6.47;;;;;;;13.46;100.00;100861.19;5041612;28;20075;-91
2022/10/23 08:20:52;;;;;;;10.73;6.30;;;;;;;13.52;100.00;100854.84;5038914;28;20037;-91
2022/10/23 08:23:19;;;;;;;11.57;6.20;;;;;;;13.61;100.00;100858.03;5039996;28;20079;-91
2022/10/23 08:25:45;;;;;;;12.03;6.33;;;;;;;13.66;100.00;100859.00;5021398;28;21746;-90
2022/10/23 08:28:11;;;;;;;8.53;5.93;;;;;;;13.75;100.00;100853.22;5040228;28;20111;-90
2022/10/23 08:30:37;;;;;;;10.50;5.90;;;;;;;13.80;100.00;100851.50;5040338;28;20114;-91
2022/10/23 08:33:05;;;;;;;10.57;6.10;;;;;;;13.87;100.00;100866.88;5040227;28;20238;-91
2022/10/23 08:35:38;;;;;;;10.50;5.83;;;;;;;13.91;100.00;100858.03;5041150;28;20496;-92
2022/10/23 08:38:04;;;;;;;12.00;5.60;;;;;;;13.97;100.00;100857.06;5039983;28;20028;-89
2022/10/23 08:40:29;;;;;;;9.87;5.60;;;;;;;14.03;100.00;100847.13;5023550;28;20033;-92
2022/10/23 08:43:04;;;;;;;9.07;5.47;;;;;;;14.10;100.00;100853.31;5016282;28;20404;-92
2022/10/23 08:45:41;;;;;;;8.80;6.00;;;;;;;14.14;100.00;100853.66;5041196;28;20806;-90
2022/10/23 08:48:27;;;;;;;8.20;4.87;;;;;;;14.15;100.00;100841.69;5043513;28;20040;-90
2022/10/23 08:51:13;;;;;;;10.00;5.27;;;;;;;14.18;100.00;100839.34;5026073;28;20029;-91
2022/10/23 08:53:50;;;;;;;8.63;5.60;;;;;;;14.17;100.00;100831.38;5044033;28;20086;-89
2022/10/23 08:56:28;;;;;;;9.10;4.77;;;;;;;14.20;100.00;100836.38;5043827;28;20078;-89
2022/10/23 08:59:18;;;;;;;10.30;5.00;;;;;;;14.25;100.00;100833.78;5044697;28;20052;-91
2022/10/23 09:02:00;;;;;;;9.97;5.30;;;;;;;14.25;100.00;100827.47;5026532;28;20028;-90
2022/10/23 09:04:26;;;;;;;6.83;5.00;;;;;;;14.27;100.00;100831.63;5043483;28;20079;-91
2022/10/23 09:07:34;;;;;;;11.13;5.30;;;;;;;14.31;100.00;100819.19;5025566;28;20045;-90
2022/10/23 09:10:17;;;;;;;10.87;5.07;;;;;;;14.31;100.00;100829.28;5043417;28;20060;-91
2022/10/23 09:12:42;;;;;;;11.50;5.37;;;;;;;14.30;100.00;100814.81;5035518;28;20044;-90
2022/10/23 09:15:34;;;;;;;8.30;4.63;;;;;;;14.34;100.00;100815.97;5044117;28;20463;-91
2022/10/23 09:18:08;;;;;;;9.33;5.03;;;;;;;14.33;100.00;100798.00;5028822;28;20028;-90
2022/10/23 09:20:34;;;;;;;;;;;;;;;14.45;100.00;100799.88;5043149;28;20068;-91
2022/10/23 09:23:19;;;;;;;9.87;4.90;;;;;;;14.40;100.00;100789.69;5043593;28;20019;-90
2022/10/23 09:25:47;;;;;;;9.83;5.07;;;;;;;14.40;100.00;100797.88;5033860;28;20397;-90
2022/10/23 09:28:22;;;;;;;9.60;4.80;;;;;;;14.45;100.00;100792.50;5023977;28;20047;-94
2022/10/23 09:30:48;;;;;;;9.83;4.63;;;;;;;14.46;100.00;100782.47;5024229;28;20444;-90
2022/10/23 09:33:20;;;;;;;9.97;4.87;;;;;;;14.49;100.00;100777.34;5018690;28;20037;-89
2022/10/23 09:35:58;;;;;;;8.53;4.73;;;;;;;14.55;100.00;100782.91;5042930;28;20033;-89
2022/10/23 09:38:35;;;;;;;8.37;4.80;;;;;;;14.55;100.00;100778.28;5042718;28;20449;-91
2022/10/23 09:41:06;;;;;;;10.63;4.83;;;;;;;14.57;100.00;100781.59;5023346;28;20128;-90
2022/10/23 09:43:32;;;;;;;9.23;4.47;;;;;;;14.56;100.00;100773.66;5042461;28;20034;-92
2022/10/23 09:46:05;;;;;;;8.87;4.80;;;;;;;14.61;100.00;100769.13;5042211;28;20083;-90
2022/10/23 09:48:31;;;;;;;9.97;4.80;;;;;;;14.64;100.00;100771.41;5017690;28;20025;-90
2022/10/23 09:51:02;;;;;;;10.40;4.97;;;;;;;14.63;100.00;100761.59;5042288;28;20060;-89
2022/10/23 09:53:46;;;;;;;6.80;4.67;;;;;;;14.68;100.00;100747.22;5042762;28;20036;-88
2022/10/23 09:56:33;;;;;;;9.02;4.55;;;;;;;14.75;100.00;100750.63;5024138;28;20114;-91
2022/10/23 09:59:18;;;;;;;7.67;4.30;;;;;;;14.74;100.00;100748.16;5042322;28;20055;-88
2022/10/23 10:01:46;;;;;;;11.40;4.20;;;;;;;14.76;100.00;100749.56;5043226;28;20605;-90
2022/10/23 10:04:11;;;;;;;5.53;4.00;;;;;;;14.78;100.00;100743.88;5023607;28;20060;-91
2022/10/23 10:06:37;;;;;;;11.07;4.47;;;;;;;14.78;100.00;100738.41;5023387;28;20484;-90
2022/10/23 10:09:09;;;;;;;8.87;4.20;;;;;;;14.82;100.00;100736.84;5042168;28;20036;-90
2022/10/23 10:11:50;;;;;;;11.27;4.47;;;;;;;14.92;100.00;100736.22;5041855;28;20562;-91
2022/10/23 10:14:53;;;;;;;11.47;4.50;;;;;;;14.95;100.00;100728.38;5041605;28;20551;-90
2022/10/23 10:17:51;;;;;;;7.00;4.33;;;;;;;15.01;100.00;100721.97;5041055;28;20043;-90
2022/10/23 10:20:28;;;;;;;9.67;4.47;;;;;;;14.97;100.00;100718.06;5041173;28;20044;-88
2022/10/23 10:23:23;;;;;;;6.63;4.27;;;;;;;14.98;100.00;100697.88;5018592;28;20071;-93
2022/10/23 10:26:13;;;;;;;9.73;4.70;;;;;;;14.97;100.00;100696.25;5042256;28;20428;-91
2022/10/23 10:28:57;;;;;;;7.17;4.63;;;;;;;15.02;100.00;100698.22;5023699;28;20024;-90
2022/10/23 10:31:31;;;;;;;11.87;4.87;;;;;;;15.06;100.00;100683.03;5041217;28;20097;-90
2022/10/23 10:33:56;;;;;;;8.73;4.17;;;;;;;15.07;100.00;100679.22;5023866;28;20083;-90
2022/10/23 10:36:55;;;;;;;11.10;5.23;;;;;;;15.15;100.00;100687.00;5041370;28;20025;-88
2022/10/23 10:39:23;;;;;;;12.97;5.07;;;;;;;15.20;100.00;100699.91;5040182;28;20036;-90
2022/10/23 10:41:49;;;;;;;9.63;4.83;;;;;;;15.25;100.00;100691.00;5041065;28;20032;-91
2022/10/23 10:44:48;;;;;;;12.80;4.83;;;;;;;15.29;100.00;100686.69;5023882;28;20047;-91
2022/10/23 10:47:28;;;;;;;6.90;4.50;;;;;;;15.33;100.00;100688.66;5023712;28;20480;-90
2022/10/23 10:50:14;;;;;;;9.93;4.90;;;;;;;15.42;100.00;100686.38;5040777;28;20935;-89
2022/10/23 10:53:05;;;;;;;12.60;5.10;;;;;;;15.48;100.00;100690.00;5041699;28;20044;-91
2022/10/23 10:55:34;;;;;;;12.73;5.57;;;;;;;15.52;100.00;100685.69;5033229;28;20040;-92
2022/10/23 10:58:22;;;;;;;9.50;4.90;;;;;;;15.63;100.00;100675.75;5022620;28;20535;-92
2022/10/23 11:00:53;;;;;;;9.63;4.70;;;;;;;15.73;100.00;100664.16;5041733;28;20056;-91
2022/10/23 11:03:48;;;;;;;11.93;5.00;;;;;;;15.81;100.00;100655.56;5041209;28;20785;-92
2022/10/23 11:06:17;;;;;;;9.30;4.80;;;;;;;15.90;100.00;100665.00;5014901;28;20414;-88
2022/10/23 11:08:43;;;;;;;11.60;4.50;;;;;;;15.98;98.95;100655.50;5040391;28;20044;-92
2022/10/23 11:11:13;;;;;;;6.30;4.10;;;;;;;16.06;99.05;100643.31;5015308;28;20053;-91
2022/10/23 11:13:42;;;;;;;8.37;4.40;;;;;;;16.15;97.97;100648.09;5040853;28;20024;-93
2022/10/23 11:16:17;;;;;;;8.43;4.20;;;;;;;16.27;98.41;100645.25;5022437;28;20115;-93
2022/10/23 11:18:48;;;;;;;10.57;4.17;;;;;;;16.36;97.62;100654.66;5041405;28;20378;-91
2022/10/23 11:21:21;;;;;;;12.67;4.70;;;;;;;16.43;96.81;100643.53;5022881;28;20572;-90
2022/10/23 11:24:27;;;;;;;9.30;4.60;;;;;;;16.49;97.22;100633.47;5041835;28;20029;-90
2022/10/23 11:27:04;;;;;;;8.33;4.23;;;;;;;16.59;96.92;100613.59;5040399;28;20028;-91